Time;durP1;ratioP1;P1;durP2;ratioP2;P2;SDS_P1;SDS_P2;PMS_P1;PMS_P2;Temp;Humidity;BMP_temperature;BMP_pressure;BME280_temperature;BME280_humidity;BME280_pressure;Samples;Min_cycle;Max_cycle;Signal;HPM_P1;HPM_P2
2023/11/01 00:00:51;;;;;;;6.50;2.33;;;;;;;9.51;100.00;101154.06;4981074;28;20861;-67
2023/11/01 00:03:17;;;;;;;4.83;2.00;;;;;;;9.42;100.00;101110.47;4982989;28;20748;-66
2023/11/01 00:05:42;;;;;;;4.30;1.70;;;;;;;9.71;100.00;101157.84;4966915;28;20236;-67
2023/11/01 00:08:08;;;;;;;5.20;1.63;;;;;;;9.64;100.00;101148.91;4965172;28;20229;-66
2023/11/01 00:10:33;;;;;;;5.07;1.93;;;;;;;10.00;100.00;101139.25;4974777;28;20201;-66
2023/11/01 00:12:59;;;;;;;4.00;1.50;;;;;;;9.73;100.00;101099.56;4980384;28;20193;-67
2023/11/01 00:15:24;;;;;;;6.00;1.90;;;;;;;9.65;100.00;101113.06;4987853;28;20291;-67
2023/11/01 00:17:49;;;;;;;4.67;1.57;;;;;;;9.53;100.00;101074.38;4984298;28;20182;-66
2023/11/01 00:20:15;;;;;;;4.50;1.60;;;;;;;9.72;100.00;101105.97;4983616;28;20253;-66
2023/11/01 00:22:40;;;;;;;4.67;1.47;;;;;;;9.87;100.00;101110.47;4985368;28;20186;-66
2023/11/01 00:25:06;;;;;;;5.53;1.90;;;;;;;9.60;100.00;101077.97;4978943;28;20193;-66
2023/11/01 00:27:32;;;;;;;6.80;2.20;;;;;;;9.95;100.00;101095.13;4981988;28;20241;-66
2023/11/01 00:30:00;;;;;;;4.73;2.07;;;;;;;9.72;100.00;101073.81;4979937;28;20759;-67
2023/11/01 00:32:25;;;;;;;8.67;2.33;;;;;;;9.90;100.00;101073.41;4982480;28;20193;-66
2023/11/01 00:34:51;;;;;;;6.30;2.50;;;;;;;9.73;100.00;101056.72;4987280;28;20440;-67
2023/11/01 00:37:16;;;;;;;5.50;2.53;;;;;;;9.65;100.00;101037.25;4988598;28;20658;-67
2023/11/01 00:39:54;;;;;;;8.23;3.30;;;;;;;9.93;100.00;101064.16;4985435;28;20284;-67
2023/11/01 00:42:19;;;;;;;7.63;3.87;;;;;;;9.86;100.00;101082.00;4976304;28;21378;-67
2023/11/01 00:44:45;;;;;;;6.40;3.60;;;;;;;10.02;100.00;101099.72;4977588;28;20442;-67
2023/11/01 00:47:11;;;;;;;7.00;3.87;;;;;;;9.90;100.00;101102.06;4981072;28;20276;-67
2023/11/01 00:49:36;;;;;;;7.40;3.47;;;;;;;9.84;100.00;101079.53;4981622;28;20213;-67
2023/11/01 00:52:02;;;;;;;6.67;3.80;;;;;;;9.99;100.00;101116.19;4983524;28;20185;-67
2023/11/01 00:54:27;;;;;;;9.37;3.73;;;;;;;9.83;100.00;101093.09;4987558;28;20285;-67
2023/11/01 00:56:52;;;;;;;6.73;4.03;;;;;;;9.92;100.00;101100.00;4979630;28;20234;-66
2023/11/01 00:59:18;;;;;;;6.87;3.43;;;;;;;9.96;100.00;101091.41;4979275;28;20185;-67
2023/11/01 01:01:44;;;;;;;8.83;4.23;;;;;;;9.92;100.00;101090.13;4982125;28;20700;-68
2023/11/01 01:04:09;;;;;;;8.30;3.77;;;;;;;9.89;100.00;101111.09;4982318;28;20189;-66
2023/11/01 01:06:34;;;;;;;12.70;3.97;;;;;;;9.31;100.00;101022.59;4981846;28;20582;-67
2023/11/01 01:09:00;;;;;;;10.13;4.33;;;;;;;9.86;100.00;101125.69;4985412;28;20260;-67
2023/11/01 01:11:25;;;;;;;9.70;4.53;;;;;;;9.98;100.00;101133.25;4981168;28;20212;-67
2023/11/01 01:13:51;;;;;;;8.40;4.17;;;;;;;9.96;100.00;101136.97;4981514;28;20243;-67
2023/11/01 01:16:16;;;;;;;7.33;3.73;;;;;;;10.07;100.00;101138.34;4982040;28;20174;-67
2023/11/01 01:18:42;;;;;;;8.63;4.50;;;;;;;9.89;100.00;101154.81;4976528;28;20213;-67
2023/11/01 01:21:07;;;;;;;10.33;4.77;;;;;;;10.01;100.00;101144.44;4979971;28;20206;-66
2023/11/01 01:23:33;;;;;;;11.13;5.17;;;;;;;10.00;100.00;101134.72;4982557;28;20177;-67
2023/11/01 01:25:58;;;;;;;9.30;5.60;;;;;;;10.00;100.00;101141.94;4982413;28;20743;-67
2023/11/01 01:28:24;;;;;;;9.70;5.40;;;;;;;10.10;100.00;101150.53;4986855;28;20208;-66
2023/11/01 01:30:49;;;;;;;10.03;5.83;;;;;;;10.00;100.00;101148.13;4979691;28;20202;-67
2023/11/01 01:33:14;;;;;;;10.20;5.17;;;;;;;9.86;100.00;101127.53;4980916;28;20719;-67
2023/11/01 01:35:40;;;;;;;9.10;5.50;;;;;;;9.86;100.00;101122.19;4973661;28;20182;-66
2023/11/01 01:38:05;;;;;;;10.90;6.30;;;;;;;10.02;100.00;101151.47;4984119;28;20252;-67
2023/11/01 01:40:34;;;;;;;11.53;5.50;;;;;;;9.85;100.00;101109.81;4983805;28;20208;-67
2023/11/01 01:43:18;;;;;;;8.67;5.37;;;;;;;10.15;100.00;101138.22;4978869;28;20186;-67
2023/11/01 01:45:45;;;;;;;9.00;5.60;;;;;;;10.12;100.00;101138.56;4983445;28;20437;-67
2023/11/01 01:48:11;;;;;;;9.70;5.90;;;;;;;9.75;100.00;101088.69;4981614;28;20460;-66
2023/11/01 01:50:38;;;;;;;11.00;5.43;;;;;;;9.98;100.00;101091.22;4984168;28;20507;-66
2023/11/01 01:53:03;;;;;;;12.13;5.80;;;;;;;9.84;100.00;101092.09;4982625;28;20437;-66
2023/11/01 01:55:29;;;;;;;11.37;7.40;;;;;;;9.94;100.00;101111.38;4979231;28;20440;-66
2023/11/01 01:57:56;;;;;;;9.67;6.07;;;;;;;10.10;100.00;101119.19;4980066;28;20186;-66
2023/11/01 02:00:24;;;;;;;10.50;5.70;;;;;;;9.65;100.00;101056.00;4979428;28;20716;-66
2023/11/01 02:02:52;;;;;;;10.57;6.40;;;;;;;10.17;100.00;101109.34;4984552;28;20832;-66
2023/11/01 02:05:18;;;;;;;11.30;6.73;;;;;;;9.90;100.00;101053.81;4979617;28;20444;-67
2023/11/01 02:07:44;;;;;;;10.30;7.23;;;;;;;9.98;100.00;101076.97;4981844;28;20469;-67
2023/11/01 02:10:14;;;;;;;9.30;6.70;;;;;;;9.84;100.00;101033.97;4983195;28;20209;-67
2023/11/01 02:12:42;;;;;;;12.50;8.30;;;;;;;10.10;100.00;101073.63;4984162;28;21119;-66
2023/11/01 02:15:08;;;;;;;12.40;7.10;;;;;;;10.01;100.00;101056.00;4987630;28;20422;-66
2023/11/01 02:17:34;;;;;;;10.87;6.80;;;;;;;10.19;100.00;101075.16;4989080;28;20486;-66
2023/11/01 02:20:00;;;;;;;10.47;7.50;;;;;;;10.23;100.00;101064.88;4984089;28;20268;-67
2023/11/01 02:22:26;;;;;;;13.87;8.60;;;;;;;10.39;100.00;101072.72;4982907;28;20278;-66
2023/11/01 02:24:53;;;;;;;12.43;8.60;;;;;;;10.23;100.00;101035.41;4983657;28;21064;-67
2023/11/01 02:27:19;;;;;;;13.20;8.13;;;;;;;10.12;100.00;101052.81;4981061;28;20210;-67
2023/11/01 02:29:44;;;;;;;11.07;7.90;;;;;;;10.05;100.00;101024.28;4974335;28;20843;-66
2023/11/01 02:32:10;;;;;;;11.33;7.20;;;;;;;10.06;100.00;101010.69;4983158;28;20564;-66
2023/11/01 02:34:36;;;;;;;13.23;9.10;;;;;;;10.14;100.00;101023.16;4979046;28;20616;-67
2023/11/01 02:37:03;;;;;;;13.30;8.03;;;;;;;10.09;100.00;101039.78;4984308;28;20288;-67
2023/11/01 02:42:56;;;;;;;12.43;9.10;;;;;;;10.47;100.00;101044.09;4980495;28;20487;-67
2023/11/01 02:45:22;;;;;;;14.40;9.40;;;;;;;10.37;100.00;101037.22;4981953;28;20430;-67
2023/11/01 02:47:50;;;;;;;17.50;10.17;;;;;;;10.33;100.00;101032.44;4975544;28;20473;-66
2023/11/01 02:50:17;;;;;;;16.90;10.30;;;;;;;10.35;100.00;101035.75;4980095;28;20456;-66
2023/11/01 02:52:42;;;;;;;11.90;9.23;;;;;;;10.28;100.00;101016.91;4981178;28;20485;-67
2023/11/01 02:55:12;;;;;;;15.80;10.80;;;;;;;10.14;100.00;100989.13;4981830;28;20515;-66
2023/11/01 02:57:38;;;;;;;17.20;12.20;;;;;;;10.44;100.00;101029.22;4978406;28;20177;-66
2023/11/01 03:00:08;;;;;;;16.70;11.33;;;;;;;10.54;100.00;101024.38;4981794;28;20464;-66
2023/11/01 03:02:37;;;;;;;16.63;13.10;;;;;;;10.49;100.00;101025.97;4983305;28;20190;-66
2023/11/01 03:05:05;;;;;;;15.80;12.23;;;;;;;10.56;100.00;101024.19;4979058;28;20445;-66
2023/11/01 03:07:31;;;;;;;18.07;12.50;;;;;;;10.52;100.00;101026.41;4981203;28;21085;-67
2023/11/01 03:10:28;;;;;;;22.40;15.50;;;;;;;10.42;100.00;101033.13;4981626;28;20472;-67
2023/11/01 03:12:53;;;;;;;21.00;15.30;;;;;;;10.20;100.00;101000.94;4973494;28;20187;-67
2023/11/01 03:15:19;;;;;;;20.77;15.73;;;;;;;10.19;100.00;100970.63;4981156;28;20437;-67
2023/11/01 03:17:44;;;;;;;20.20;16.00;;;;;;;10.35;100.00;101004.38;4983821;28;20181;-67
2023/11/01 03:20:13;;;;;;;21.60;15.73;;;;;;;10.51;100.00;101013.19;4976472;28;20209;-67
2023/11/01 03:22:39;;;;;;;19.60;14.77;;;;;;;10.52;100.00;101018.34;4984249;28;20188;-67
2023/11/01 03:25:04;;;;;;;18.47;15.07;;;;;;;10.46;100.00;101021.81;4982248;28;20426;-67
2023/11/01 03:27:30;;;;;;;19.40;14.80;;;;;;;10.57;100.00;101029.34;4990770;28;20238;-67
2023/11/01 03:29:56;;;;;;;20.33;15.30;;;;;;;10.45;100.00;101035.44;4982795;28;20684;-67
2023/11/01 03:32:24;;;;;;;19.63;15.13;;;;;;;10.33;100.00;100995.72;4984180;28;20810;-67
2023/11/01 03:34:51;;;;;;;19.40;15.40;;;;;;;10.35;100.00;101041.09;4988145;28;20431;-67
2023/11/01 03:37:17;;;;;;;21.40;16.50;;;;;;;10.46;100.00;101048.63;4986649;28;20979;-66
2023/11/01 03:39:42;;;;;;;19.23;15.40;;;;;;;10.57;100.00;101033.88;4985328;28;20463;-67
2023/11/01 03:42:08;;;;;;;18.50;14.53;;;;;;;10.53;100.00;101037.94;4980077;28;20190;-67
2023/11/01 03:44:36;;;;;;;19.97;15.40;;;;;;;10.62;100.00;101052.91;4987574;28;20651;-66
2023/11/01 03:47:03;;;;;;;19.70;15.33;;;;;;;10.44;100.00;101028.38;4985433;28;20292;-67
2023/11/01 03:49:29;;;;;;;22.70;16.90;;;;;;;10.63;100.00;101028.56;4980738;28;20522;-67
2023/11/01 03:51:59;;;;;;;20.90;15.40;;;;;;;10.39;100.00;101003.00;4982513;28;20441;-67
2023/11/01 03:54:24;;;;;;;21.40;15.40;;;;;;;10.25;100.00;100957.47;4985946;28;20424;-67
2023/11/01 03:56:50;;;;;;;17.97;14.67;;;;;;;10.58;100.00;101004.16;4988078;28;20866;-67
2023/11/01 03:59:15;;;;;;;20.23;15.20;;;;;;;10.74;100.00;101004.91;4985792;28;20195;-68
2023/11/01 04:01:40;;;;;;;19.27;15.70;;;;;;;10.72;100.00;100990.84;4984822;28;20744;-66
2023/11/01 04:04:06;;;;;;;18.60;14.70;;;;;;;10.68;100.00;100982.38;4986371;28;20191;-67
2023/11/01 04:06:32;;;;;;;19.30;14.63;;;;;;;10.75;100.00;100931.44;4987599;28;20201;-67
2023/11/01 04:08:58;;;;;;;18.40;14.43;;;;;;;10.75;100.00;100918.84;4981669;28;20637;-67
2023/11/01 04:11:23;;;;;;;18.10;13.67;;;;;;;10.63;100.00;100894.44;4987700;28;20621;-67
2023/11/01 04:13:49;;;;;;;18.10;14.93;;;;;;;10.80;100.00;100907.53;4980681;28;20437;-67
2023/11/01 04:16:15;;;;;;;20.10;15.90;;;;;;;10.57;100.00;100913.19;4981199;28;20193;-67
2023/11/01 04:18:40;;;;;;;20.63;14.97;;;;;;;10.50;100.00;100899.75;4978440;28;20812;-66
2023/11/01 04:21:06;;;;;;;17.37;14.13;;;;;;;10.55;100.00;100929.44;4983450;28;20841;-67
2023/11/01 04:23:31;;;;;;;16.90;13.50;;;;;;;10.71;100.00;100955.16;4985549;28;20204;-66
2023/11/01 04:25:57;;;;;;;17.33;13.83;;;;;;;10.54;100.00;100941.22;4984240;28;20185;-67
2023/11/01 04:28:22;;;;;;;15.67;13.00;;;;;;;10.58;100.00;100977.34;4983019;28;20226;-67
2023/11/01 04:30:47;;;;;;;17.93;13.57;;;;;;;10.70;100.00;100998.25;4986946;28;20226;-67
2023/11/01 04:33:13;;;;;;;15.90;12.77;;;;;;;10.74;100.00;101013.78;4988993;28;20294;-66
2023/11/01 04:35:38;;;;;;;14.70;12.70;;;;;;;10.40;100.00;100963.59;4985056;28;20189;-67
2023/11/01 04:38:04;;;;;;;16.40;13.67;;;;;;;10.56;100.00;101000.03;4984180;28;20621;-67
2023/11/01 04:40:31;;;;;;;17.20;13.07;;;;;;;10.61;100.00;101021.72;4985207;28;20201;-66
2023/11/01 04:42:56;;;;;;;15.63;12.30;;;;;;;10.65;100.00;101030.25;4985391;28;20182;-68
2023/11/01 04:45:23;;;;;;;17.03;13.57;;;;;;;10.59;100.00;101029.97;4986242;28;20440;-68
2023/11/01 04:47:48;;;;;;;18.40;13.67;;;;;;;10.53;100.00;101035.28;4984521;28;20202;-66
2023/11/01 04:50:15;;;;;;;14.70;11.00;;;;;;;10.64;100.00;101034.75;4986514;28;21120;-67
2023/11/01 04:52:42;;;;;;;15.80;12.50;;;;;;;10.46;100.00;101018.31;4984735;28;20548;-67
2023/11/01 04:55:08;;;;;;;16.13;12.20;;;;;;;10.66;100.00;101032.72;4982493;28;20524;-67
2023/11/01 04:57:34;;;;;;;15.67;12.03;;;;;;;10.79;100.00;101040.00;4985609;28;20424;-67
2023/11/01 05:00:00;;;;;;;15.93;12.10;;;;;;;10.47;100.00;101017.28;4988673;28;20488;-66
2023/11/01 05:02:26;;;;;;;14.50;12.20;;;;;;;10.56;100.00;101042.97;4989158;28;20190;-66
2023/11/01 05:04:51;;;;;;;16.00;11.60;;;;;;;10.50;100.00;101027.63;4986780;28;20446;-67
2023/11/01 05:07:17;;;;;;;16.70;12.10;;;;;;;10.53;100.00;101028.09;4987157;28;21106;-67
2023/11/01 05:09:42;;;;;;;14.43;11.60;;;;;;;10.54;100.00;101043.13;4983945;28;20337;-67
2023/11/01 05:12:08;;;;;;;13.90;12.20;;;;;;;10.56;100.00;101037.59;4989472;28;20182;-67
2023/11/01 05:14:34;;;;;;;15.37;11.97;;;;;;;10.51;100.00;101021.25;4988516;28;20185;-67
2023/11/01 05:16:59;;;;;;;13.60;11.27;;;;;;;10.39;100.00;101013.72;4991427;28;20542;-67
2023/11/01 05:19:25;;;;;;;13.27;10.47;;;;;;;10.54;100.00;101036.94;4987360;28;20236;-66
2023/11/01 05:21:50;;;;;;;15.03;12.30;;;;;;;10.25;100.00;101005.72;4986236;28;20189;-66
2023/11/01 05:24:16;;;;;;;13.63;10.07;;;;;;;10.72;100.00;101047.19;4981459;28;20186;-67
2023/11/01 05:26:42;;;;;;;16.50;11.23;;;;;;;10.41;100.00;101024.25;4981114;28;20213;-67
2023/11/01 05:29:08;;;;;;;13.33;10.40;;;;;;;10.57;100.00;101041.94;4981079;28;20189;-66
2023/11/01 05:31:34;;;;;;;13.90;11.00;;;;;;;10.69;100.00;101053.78;4981364;28;20940;-67
2023/11/01 05:34:00;;;;;;;14.03;11.13;;;;;;;10.73;100.00;101052.38;4986578;28;20512;-67
2023/11/01 05:36:26;;;;;;;12.87;10.33;;;;;;;10.79;100.00;101046.22;4986696;28;20182;-67
2023/11/01 05:38:52;;;;;;;12.63;9.67;;;;;;;10.73;100.00;101049.69;4985936;28;20416;-67
2023/11/01 05:41:18;;;;;;;16.13;10.63;;;;;;;10.78;100.00;101033.00;4985068;28;20206;-66
2023/11/01 05:43:44;;;;;;;13.33;10.20;;;;;;;10.66;100.00;101019.28;4987409;28;21149;-67
2023/11/01 05:46:09;;;;;;;13.23;10.57;;;;;;;10.87;100.00;101047.94;4987194;28;20283;-68
2023/11/01 05:48:35;;;;;;;12.63;10.03;;;;;;;10.93;100.00;101049.00;4986989;28;20209;-67
2023/11/01 05:51:01;;;;;;;13.33;8.67;;;;;;;10.91;100.00;101030.44;4988099;28;20206;-67
2023/11/01 05:53:27;;;;;;;11.30;8.80;;;;;;;10.81;100.00;101030.75;4986421;28;20193;-67
2023/11/01 05:55:53;;;;;;;15.50;9.80;;;;;;;10.80;100.00;101028.28;4985533;28;20433;-67
2023/11/01 05:58:19;;;;;;;18.30;10.80;;;;;;;10.82;100.00;101026.25;4984374;28;20194;-67
2023/11/01 06:00:47;;;;;;;13.50;10.20;;;;;;;10.68;100.00;101033.34;4988634;28;20213;-66
2023/11/01 06:03:13;;;;;;;14.13;9.30;;;;;;;10.59;100.00;100992.44;4987332;28;20417;-67
2023/11/01 06:05:38;;;;;;;13.60;8.97;;;;;;;10.79;100.00;101035.50;4987478;28;20923;-67
2023/11/01 06:08:06;;;;;;;11.77;8.80;;;;;;;10.48;100.00;100989.47;4982912;28;20682;-66
2023/11/01 06:10:32;;;;;;;13.97;9.30;;;;;;;10.57;100.00;101020.47;4991163;28;20212;-67
2023/11/01 06:12:57;;;;;;;16.37;9.03;;;;;;;10.53;100.00;101006.63;4983353;28;20792;-66
2023/11/01 06:15:24;;;;;;;12.50;9.37;;;;;;;10.26;100.00;100949.22;4988792;28;20449;-67
2023/11/01 06:17:50;;;;;;;12.27;9.10;;;;;;;10.39;100.00;100932.47;4986021;28;20177;-67
2023/11/01 06:20:15;;;;;;;11.73;8.63;;;;;;;10.61;100.00;101003.78;4987011;28;20459;-67
2023/11/01 06:22:41;;;;;;;11.93;8.20;;;;;;;10.79;100.00;100995.25;4988466;28;20844;-67
2023/11/01 06:25:08;;;;;;;15.23;9.70;;;;;;;10.22;100.00;100937.25;4979303;28;20209;-67
2023/11/01 06:27:38;;;;;;;12.10;8.43;;;;;;;10.74;100.00;100996.88;4986799;28;20215;-67
2023/11/01 06:30:05;;;;;;;11.10;8.60;;;;;;;10.68;100.00;100982.38;4973257;28;20462;-67
2023/11/01 06:32:37;;;;;;;13.90;9.13;;;;;;;10.04;100.00;100899.34;4977445;28;20453;-66
2023/11/01 06:35:03;;;;;;;11.40;9.20;;;;;;;10.77;100.00;101015.25;4980502;28;20453;-67
2023/11/01 06:37:28;;;;;;;12.87;9.50;;;;;;;10.74;100.00;101000.38;4984360;28;20437;-67
2023/11/01 06:39:54;;;;;;;13.93;9.27;;;;;;;10.62;100.00;101020.72;4982262;28;20516;-68
2023/11/01 06:42:19;;;;;;;17.23;9.20;;;;;;;10.85;100.00;101036.56;4983595;28;20201;-67
2023/11/01 06:44:45;;;;;;;12.00;8.70;;;;;;;10.81;100.00;101032.59;4984825;28;20185;-67
2023/11/01 06:47:11;;;;;;;16.47;8.73;;;;;;;10.74;100.00;101026.38;4980941;28;20206;-67
2023/11/01 06:49:38;;;;;;;10.43;8.50;;;;;;;10.92;100.00;101047.34;4982323;28;20202;-68
2023/11/01 06:52:05;;;;;;;15.10;8.17;;;;;;;10.88;100.00;101032.66;4983417;28;20936;-67
2023/11/01 06:54:30;;;;;;;12.60;8.07;;;;;;;10.78;100.00;101035.69;4981837;28;20460;-67
2023/11/01 06:56:56;;;;;;;10.60;8.00;;;;;;;10.98;100.00;101041.19;4977926;28;20475;-67
2023/11/01 06:59:21;;;;;;;13.00;9.37;;;;;;;10.92;100.00;101039.28;4981877;28;20253;-67
2023/11/01 07:01:47;;;;;;;11.80;7.23;;;;;;;10.84;100.00;101037.59;4981655;28;20455;-67
2023/11/01 07:04:12;;;;;;;11.53;8.00;;;;;;;10.97;100.00;101028.81;4985976;28;20185;-68
2023/11/01 07:06:38;;;;;;;11.80;7.90;;;;;;;10.76;100.00;100995.66;4986798;28;20197;-68
2023/11/01 07:09:05;;;;;;;12.37;7.83;;;;;;;10.79;100.00;100992.56;4985062;28;20201;-67
2023/11/01 07:11:30;;;;;;;9.47;6.30;;;;;;;11.04;100.00;101009.00;4992082;28;20198;-67
2023/11/01 07:13:56;;;;;;;11.57;7.97;;;;;;;10.90;100.00;100990.34;4985616;28;20532;-67
2023/11/01 07:16:21;;;;;;;13.43;7.57;;;;;;;10.83;100.00;101003.72;4982323;28;20676;-68
2023/11/01 07:18:47;;;;;;;11.20;7.50;;;;;;;10.94;100.00;101021.97;4987152;28;20700;-68
2023/11/01 07:21:12;;;;;;;14.30;8.00;;;;;;;10.91;100.00;101018.88;4982261;28;20213;-67
2023/11/01 07:23:38;;;;;;;10.00;6.07;;;;;;;10.80;100.00;100994.22;4983409;28;20178;-67
2023/11/01 07:26:03;;;;;;;11.87;7.33;;;;;;;10.97;100.00;100999.28;4981463;28;20186;-67
2023/11/01 07:28:30;;;;;;;9.50;6.60;;;;;;;11.04;100.00;100992.91;4986056;28;20245;-67
2023/11/01 07:30:56;;;;;;;10.40;6.20;;;;;;;10.97;100.00;100967.09;4984492;28;20287;-67
2023/11/01 07:33:22;;;;;;;11.73;7.23;;;;;;;11.01;100.00;100985.25;4980049;28;20444;-68
2023/11/01 07:35:47;;;;;;;8.63;6.40;;;;;;;11.09;100.00;100960.13;4982029;28;20959;-67
2023/11/01 07:38:13;;;;;;;8.77;6.10;;;;;;;10.91;100.00;100919.56;4981276;28;20185;-67
2023/11/01 07:40:38;;;;;;;14.20;6.23;;;;;;;11.19;100.00;100965.09;4986424;28;20213;-67
2023/11/01 07:43:04;;;;;;;8.70;5.83;;;;;;;11.15;100.00;100937.03;4982403;28;20192;-67
2023/11/01 07:45:30;;;;;;;8.33;5.37;;;;;;;11.27;100.00;100952.34;4981581;28;20782;-68
2023/11/01 07:47:56;;;;;;;8.50;5.00;;;;;;;11.20;100.00;100945.31;4978244;28;20384;-68
2023/11/01 07:50:21;;;;;;;10.17;5.47;;;;;;;11.07;100.00;100917.34;4983206;28;20468;-67
2023/11/01 07:52:47;;;;;;;9.87;6.23;;;;;;;11.21;100.00;100925.47;4982330;28;20240;-67
2023/11/01 07:55:12;;;;;;;12.20;5.13;;;;;;;11.29;100.00;100925.31;4980942;28;20182;-67
2023/11/01 07:57:38;;;;;;;7.60;5.07;;;;;;;11.22;100.00;100936.00;4980223;28;20177;-68
2023/11/01 08:00:05;;;;;;;7.73;5.10;;;;;;;11.21;100.00;100938.91;4983503;28;20221;-67
2023/11/01 08:02:31;;;;;;;12.03;5.40;;;;;;;11.27;100.00;100932.72;4998301;28;20181;-67
2023/11/01 08:04:58;;;;;;;9.97;5.17;;;;;;;11.19;100.00;100922.16;4979115;28;20808;-67
2023/11/01 08:07:25;;;;;;;10.73;5.57;;;;;;;11.16;100.00;100909.13;4978502;28;20542;-67
2023/11/01 08:09:51;;;;;;;10.23;5.53;;;;;;;11.24;100.00;100935.81;4974766;28;20458;-67
2023/11/01 08:12:17;;;;;;;8.75;5.50;;;;;;;11.35;100.00;100931.72;4986244;28;20527;-68
2023/11/01 08:14:43;;;;;;;8.30;5.80;;;;;;;11.34;100.00;100930.91;4982472;28;21314;-68
2023/11/01 08:17:09;;;;;;;10.93;6.70;;;;;;;11.35;100.00;100926.34;4977437;28;20442;-67
2023/11/01 08:19:36;;;;;;;10.33;6.70;;;;;;;11.11;100.00;100887.41;4978100;28;20703;-68
2023/11/01 08:22:01;;;;;;;10.10;6.90;;;;;;;11.15;100.00;100880.63;4978263;28;20967;-68
2023/11/01 08:24:27;;;;;;;11.63;6.33;;;;;;;11.39;100.00;100938.34;4982944;28;20449;-68
2023/11/01 08:27:36;;;;;;;9.00;6.73;;;;;;;11.43;100.00;100950.34;4975981;28;20209;-68
2023/11/01 08:30:01;;;;;;;11.80;7.43;;;;;;;10.93;100.00;100926.38;4975246;28;20561;-67
2023/11/01 08:32:27;;;;;;;9.53;6.97;;;;;;;11.34;100.00;100975.69;4982840;28;20441;-67
2023/11/01 08:34:53;;;;;;;9.70;6.87;;;;;;;11.14;100.00;100954.13;4985875;28;20441;-67
2023/11/01 08:37:19;;;;;;;10.83;7.10;;;;;;;11.35;100.00;100993.50;4985374;28;20181;-67
2023/11/01 08:39:44;;;;;;;11.87;7.20;;;;;;;11.42;100.00;100983.59;4985213;28;20457;-68
2023/11/01 08:42:10;;;;;;;9.30;7.53;;;;;;;11.33;100.00;100972.19;4984795;28;20189;-68
2023/11/01 08:44:35;;;;;;;12.63;7.77;;;;;;;11.38;100.00;100977.81;4981899;28;20181;-67
2023/11/01 08:47:04;;;;;;;11.30;7.27;;;;;;;11.13;100.00;100931.84;4983220;28;20206;-67
2023/11/01 08:49:30;;;;;;;11.03;7.10;;;;;;;11.39;100.00;100971.38;4980542;28;20212;-67
2023/11/01 08:51:56;;;;;;;12.60;7.00;;;;;;;11.47;100.00;100973.91;4984434;28;20952;-66
2023/11/01 08:54:24;;;;;;;9.83;6.63;;;;;;;11.34;100.00;100968.50;4987921;28;20193;-68
2023/11/01 08:56:50;;;;;;;8.03;6.50;;;;;;;11.08;100.00;100920.88;4987919;28;20421;-67
2023/11/01 08:59:15;;;;;;;11.10;6.90;;;;;;;11.45;100.00;100951.78;4981680;28;20455;-67
2023/11/01 09:01:41;;;;;;;10.40;6.80;;;;;;;11.37;100.00;100962.72;4980809;28;20469;-67
2023/11/01 09:04:06;;;;;;;9.07;6.83;;;;;;;11.48;100.00;100961.28;4985360;28;20190;-67
2023/11/01 09:06:34;;;;;;;7.63;6.27;;;;;;;11.07;100.00;100895.88;4983510;28;20670;-66
2023/11/01 09:08:59;;;;;;;13.07;6.40;;;;;;;11.32;100.00;100914.16;4982060;28;20272;-68
2023/11/01 09:11:25;;;;;;;8.53;6.73;;;;;;;11.43;100.00;100950.34;4986031;28;20490;-67
2023/11/01 09:13:50;;;;;;;11.27;6.50;;;;;;;11.45;100.00;100940.22;4980314;28;20269;-67
2023/11/01 09:16:18;;;;;;;9.73;6.60;;;;;;;11.41;100.00;100941.66;4984287;28;20780;-68
2023/11/01 09:18:43;;;;;;;9.07;6.17;;;;;;;11.49;100.00;100944.16;4982454;28;20252;-67
2023/11/01 09:21:09;;;;;;;9.07;5.83;;;;;;;11.49;100.00;100954.91;4985401;28;21154;-67
2023/11/01 09:23:34;;;;;;;8.10;5.40;;;;;;;11.51;100.00;100968.94;4977918;28;20364;-67
2023/11/01 09:26:00;;;;;;;8.20;5.93;;;;;;;11.43;100.00;100959.22;4977990;28;20193;-68
2023/11/01 09:28:26;;;;;;;9.53;5.93;;;;;;;11.53;100.00;100985.69;4978742;28;20536;-68
2023/11/01 09:30:51;;;;;;;9.93;6.67;;;;;;;11.39;100.00;100984.00;4981401;28;20462;-67
2023/11/01 09:33:17;;;;;;;8.67;5.30;;;;;;;11.35;100.00;101002.38;4986125;28;20651;-67
2023/11/01 09:35:42;;;;;;;7.50;5.33;;;;;;;11.28;100.00;101023.84;4986019;28;20185;-67
2023/11/01 09:38:08;;;;;;;7.10;5.40;;;;;;;11.08;100.00;101010.28;4979192;28;20179;-68
2023/11/01 09:40:34;;;;;;;7.80;5.43;;;;;;;11.09;100.00;101051.38;4982262;28;20217;-67
2023/11/01 09:42:59;;;;;;;7.67;4.70;;;;;;;10.93;100.00;101054.38;4980360;28;20512;-68
2023/11/01 09:45:25;;;;;;;8.17;4.93;;;;;;;11.38;100.00;101149.69;4984605;28;20189;-67
2023/11/01 09:47:51;;;;;;;6.90;5.23;;;;;;;11.22;100.00;101155.34;4983315;28;20284;-68
2023/11/01 09:50:17;;;;;;;6.20;4.30;;;;;;;11.28;100.00;101193.00;4981712;28;20457;-67
2023/11/01 09:52:43;;;;;;;6.87;4.87;;;;;;;10.74;100.00;101149.78;4981878;28;20248;-68
2023/11/01 09:55:09;;;;;;;6.70;4.40;;;;;;;11.27;100.00;101263.00;4985867;28;20932;-68
2023/11/01 09:57:36;;;;;;;7.07;4.70;;;;;;;11.34;100.00;101293.44;4986974;28;20559;-67
2023/11/01 10:00:03;;;;;;;6.00;3.67;;;;;;;11.25;100.00;101330.34;4978316;28;20844;-67
2023/11/01 10:02:29;;;;;;;6.60;4.50;;;;;;;11.07;100.00;101325.38;4979129;28;20540;-68
2023/11/01 10:04:55;;;;;;;6.90;4.30;;;;;;;11.21;100.00;101369.31;4984074;28;20527;-67
2023/11/01 10:07:20;;;;;;;5.40;3.67;;;;;;;11.21;100.00;101395.34;4982825;28;20221;-68
2023/11/01 10:09:47;;;;;;;4.53;3.07;;;;;;;11.36;100.00;101419.47;4987339;28;20456;-68
2023/11/01 10:12:13;;;;;;;5.13;3.17;;;;;;;11.43;100.00;101444.56;4981211;28;20217;-67
2023/11/01 10:14:38;;;;;;;5.47;3.23;;;;;;;11.43;100.00;101466.06;4978558;28;20536;-67
2023/11/01 10:17:04;;;;;;;4.80;3.40;;;;;;;11.40;100.00;101469.94;4983569;28;20524;-67
2023/11/01 10:19:30;;;;;;;4.13;2.80;;;;;;;11.42;100.00;101488.56;4985264;28;20209;-67
2023/11/01 10:21:56;;;;;;;4.73;2.70;;;;;;;11.42;100.00;101494.75;4982628;28;20194;-67
2023/11/01 10:24:25;;;;;;;5.83;3.27;;;;;;;11.40;100.00;101512.94;4986973;28;20947;-68
2023/11/01 10:26:55;;;;;;;4.30;2.60;;;;;;;11.42;100.00;101537.72;4982544;28;20213;-68
2023/11/01 10:29:22;;;;;;;7.30;3.40;;;;;;;11.41;100.00;101548.69;4979583;28;20444;-67
2023/11/01 10:31:57;;;;;;;4.27;3.00;;;;;;;11.45;100.00;101566.91;4984493;28;20468;-67
2023/11/01 10:34:31;;;;;;;4.60;3.00;;;;;;;11.44;100.00;101572.47;4977888;28;20855;-67
2023/11/01 10:36:58;;;;;;;6.53;3.20;;;;;;;11.50;100.00;101594.06;4980752;28;20437;-67
2023/11/01 10:39:25;;;;;;;4.67;3.30;;;;;;;11.54;100.00;101594.50;4981002;28;20444;-67
2023/11/01 10:41:55;;;;;;;4.90;3.10;;;;;;;11.57;100.00;101618.34;4981085;28;20440;-67
2023/11/01 10:44:21;;;;;;;5.20;3.20;;;;;;;11.53;100.00;101611.66;4982016;28;20959;-67
2023/11/01 10:46:50;;;;;;;6.03;3.50;;;;;;;11.61;100.00;101637.59;4985075;28;20529;-67
2023/11/01 10:49:16;;;;;;;6.77;3.70;;;;;;;11.60;100.00;101625.16;4978832;28;20916;-67
2023/11/01 10:51:43;;;;;;;8.23;3.97;;;;;;;11.70;100.00;101647.22;4981573;28;20449;-67
2023/11/01 10:54:09;;;;;;;8.40;4.73;;;;;;;11.62;100.00;101634.72;4979608;28;20441;-68
2023/11/01 10:56:36;;;;;;;7.03;4.13;;;;;;;11.63;100.00;101627.47;4985372;28;20436;-67
2023/11/01 10:59:38;;;;;;;7.27;4.60;;;;;;;11.86;100.00;101668.56;4976407;28;20877;-67
2023/11/01 11:02:16;;;;;;;7.03;4.40;;;;;;;11.80;100.00;101655.00;4981984;28;20453;-67
2023/11/01 11:04:57;;;;;;;11.50;5.50;;;;;;;11.95;100.00;101680.88;4982470;28;20528;-68
2023/11/01 11:07:37;;;;;;;7.67;4.00;;;;;;;12.05;100.00;101685.13;4981096;28;20468;-67
2023/11/01 11:10:21;;;;;;;8.57;4.33;;;;;;;12.10;100.00;101690.78;4981216;28;20471;-67
2023/11/01 11:13:17;;;;;;;8.33;4.50;;;;;;;12.09;100.00;101691.78;4979938;28;20495;-67